createdAt,value
2022-12-31T00:01:03.638Z,20.86
2022-12-31T00:03:31.694Z,20.67
2022-12-31T00:06:00.112Z,20.67
2022-12-31T00:08:28.108Z,20.69
2022-12-31T00:10:56.213Z,20.74
2022-12-31T00:13:24.686Z,20.77
2022-12-31T00:15:56.500Z,20.80
2022-12-31T00:18:24.468Z,20.82
2022-12-31T00:20:52.485Z,20.85
2022-12-31T00:23:20.544Z,20.87
2022-12-31T00:25:48.533Z,20.89
2022-12-31T00:28:16.528Z,20.89
2022-12-31T00:30:44.562Z,20.88
2022-12-31T00:33:13.966Z,20.91
2022-12-31T00:35:42.019Z,20.91
2022-12-31T00:38:09.971Z,20.91
2022-12-31T00:40:38.030Z,20.92
2022-12-31T00:43:06.119Z,20.91
2022-12-31T00:45:34.016Z,20.92
2022-12-31T00:48:02.145Z,20.92
2022-12-31T00:50:31.805Z,20.92
2022-12-31T00:52:59.838Z,20.92
2022-12-31T00:55:27.805Z,20.92
2022-12-31T00:57:55.824Z,20.91
2022-12-31T01:00:24.510Z,20.90
2022-12-31T01:02:52.648Z,20.90
2022-12-31T01:05:20.755Z,20.90
2022-12-31T01:07:50.369Z,20.89
2022-12-31T01:10:38.508Z,20.89
2022-12-31T01:13:06.520Z,20.89
2022-12-31T01:15:35.567Z,20.89
2022-12-31T01:18:03.791Z,20.89
2022-12-31T01:20:31.934Z,20.88
2022-12-31T01:23:01.284Z,20.88
2022-12-31T01:25:29.236Z,20.88
2022-12-31T01:27:57.273Z,20.64
2022-12-31T01:30:25.225Z,20.40
2022-12-31T01:32:53.282Z,20.41
2022-12-31T01:35:21.330Z,20.44
2022-12-31T01:37:49.376Z,20.48
2022-12-31T01:40:21.000Z,20.53
2022-12-31T01:42:56.273Z,20.53
2022-12-31T01:45:24.856Z,20.59
2022-12-31T01:47:57.237Z,20.60
2022-12-31T01:50:29.076Z,20.62
2022-12-31T01:53:00.305Z,20.64
2022-12-31T01:55:34.641Z,20.66
2022-12-31T01:58:07.478Z,20.65
2022-12-31T02:00:35.946Z,20.67
2022-12-31T02:03:04.915Z,20.67
2022-12-31T02:05:40.022Z,20.67
2022-12-31T02:08:08.664Z,20.67
2022-12-31T02:10:38.017Z,20.68
2022-12-31T02:13:06.428Z,20.67
2022-12-31T02:15:52.207Z,20.67
2022-12-31T02:18:27.680Z,20.67
2022-12-31T02:21:20.419Z,20.67
2022-12-31T02:24:09.694Z,20.67
2022-12-31T02:27:02.408Z,20.67
2022-12-31T02:30:12.463Z,20.67
2022-12-31T02:32:52.715Z,20.66
2022-12-31T02:35:25.639Z,20.67
2022-12-31T02:38:00.126Z,20.67
2022-12-31T02:40:28.719Z,20.67
2022-12-31T02:42:56.659Z,20.65
2022-12-31T02:45:30.893Z,20.65
2022-12-31T02:48:11.386Z,20.65
2022-12-31T02:50:55.696Z,20.64
2022-12-31T02:53:45.499Z,20.65
2022-12-31T02:56:19.817Z,20.65
2022-12-31T02:59:16.878Z,20.65
2022-12-31T03:02:14.822Z,20.64
2022-12-31T03:04:45.004Z,20.64
2022-12-31T03:07:15.136Z,20.64
2022-12-31T03:09:43.272Z,20.64
2022-12-31T03:12:31.565Z,20.64
2022-12-31T03:14:59.807Z,20.63
2022-12-31T03:17:29.154Z,20.63
2022-12-31T03:20:14.717Z,20.63
2022-12-31T03:22:43.862Z,20.63
2022-12-31T03:25:32.053Z,20.63
2022-12-31T03:28:01.002Z,20.62
2022-12-31T03:30:29.272Z,20.61
2022-12-31T03:32:59.277Z,20.61
2022-12-31T03:35:29.529Z,20.61
2022-12-31T03:37:57.841Z,20.63
2022-12-31T03:40:27.825Z,20.62
2022-12-31T03:42:56.237Z,20.63
2022-12-31T03:45:25.071Z,20.63
2022-12-31T03:47:53.619Z,20.63
2022-12-31T03:50:24.464Z,20.64
2022-12-31T03:52:52.466Z,20.65
2022-12-31T03:55:20.891Z,20.64
2022-12-31T03:57:48.849Z,20.64
2022-12-31T04:00:19.551Z,20.63
2022-12-31T04:02:48.254Z,20.63
2022-12-31T04:05:17.207Z,20.63
2022-12-31T04:07:46.930Z,20.63
2022-12-31T04:10:17.998Z,20.62
2022-12-31T04:12:46.360Z,20.63
2022-12-31T04:15:18.259Z,20.63
2022-12-31T04:17:46.681Z,20.62
2022-12-31T04:20:15.028Z,20.64
2022-12-31T04:22:44.129Z,20.63
2022-12-31T04:25:13.655Z,20.62
2022-12-31T04:27:43.698Z,20.62
2022-12-31T04:30:15.280Z,20.62
2022-12-31T04:32:43.329Z,20.61
2022-12-31T04:35:12.720Z,20.60
2022-12-31T04:37:40.802Z,20.60
2022-12-31T04:40:10.222Z,20.60
2022-12-31T04:42:42.145Z,20.59
2022-12-31T04:45:11.161Z,20.59
2022-12-31T04:47:39.079Z,20.60
2022-12-31T04:50:07.890Z,20.58
2022-12-31T04:52:42.341Z,20.59
2022-12-31T04:55:11.059Z,20.57
2022-12-31T04:57:43.617Z,20.57
2022-12-31T05:00:12.579Z,20.56
2022-12-31T05:02:40.764Z,20.56
2022-12-31T05:05:09.743Z,20.56
2022-12-31T05:07:37.698Z,20.56
2022-12-31T05:10:06.621Z,20.55
2022-12-31T05:12:34.623Z,20.57
2022-12-31T05:15:04.112Z,20.55
2022-12-31T05:17:32.091Z,20.55
2022-12-31T05:20:00.041Z,20.57
2022-12-31T05:22:31.036Z,20.57
2022-12-31T05:25:00.045Z,20.56
2022-12-31T05:27:32.092Z,20.56
2022-12-31T05:30:00.684Z,20.56
2022-12-31T05:32:30.083Z,20.55
2022-12-31T05:34:59.814Z,20.55
2022-12-31T05:37:30.393Z,20.55
2022-12-31T05:39:58.875Z,20.54
2022-12-31T05:42:27.311Z,20.54
2022-12-31T05:44:55.381Z,20.53
2022-12-31T05:47:23.541Z,20.53
2022-12-31T05:49:53.020Z,20.52
2022-12-31T05:52:21.666Z,20.51
2022-12-31T05:54:49.660Z,20.51
2022-12-31T05:57:17.655Z,20.52
2022-12-31T05:59:45.626Z,20.49
2022-12-31T06:02:13.624Z,20.51
2022-12-31T06:04:41.768Z,20.51
2022-12-31T06:07:11.169Z,20.50
2022-12-31T06:09:39.228Z,20.49
2022-12-31T06:12:07.900Z,20.48
2022-12-31T06:14:39.561Z,20.47
2022-12-31T06:17:10.516Z,20.48
2022-12-31T06:19:38.519Z,20.48
2022-12-31T06:22:10.902Z,20.48
2022-12-31T06:24:38.911Z,20.49
2022-12-31T06:27:06.947Z,20.48
2022-12-31T06:29:34.930Z,20.48
2022-12-31T06:32:02.979Z,20.47
2022-12-31T06:34:30.898Z,20.49
2022-12-31T06:36:59.596Z,20.47
2022-12-31T06:39:29.253Z,20.49
2022-12-31T06:41:57.246Z,20.48
2022-12-31T06:44:25.152Z,20.48
2022-12-31T06:46:53.297Z,20.48
2022-12-31T06:49:21.377Z,20.48
2022-12-31T06:51:49.409Z,20.46
2022-12-31T06:54:17.421Z,20.47
2022-12-31T06:56:47.363Z,20.46
2022-12-31T06:59:26.100Z,20.47
2022-12-31T07:02:13.656Z,20.47
2022-12-31T07:05:10.533Z,20.48
2022-12-31T07:07:49.417Z,20.48
2022-12-31T07:10:29.951Z,20.46
2022-12-31T07:13:12.996Z,20.48
2022-12-31T07:16:06.916Z,20.47
2022-12-31T07:18:41.937Z,20.46
2022-12-31T07:21:14.307Z,20.47
2022-12-31T07:23:45.199Z,20.47
2022-12-31T07:26:23.607Z,20.47
2022-12-31T07:29:02.089Z,20.46
2022-12-31T07:31:46.295Z,20.46
2022-12-31T07:34:25.397Z,20.46
2022-12-31T07:37:04.456Z,20.47
2022-12-31T07:39:40.659Z,20.46
2022-12-31T07:42:16.547Z,20.45
2022-12-31T07:44:57.571Z,20.46
2022-12-31T07:47:27.776Z,20.48
2022-12-31T07:49:57.277Z,20.47
2022-12-31T07:52:28.909Z,20.47
2022-12-31T07:54:56.937Z,20.48
2022-12-31T07:57:35.633Z,20.48
2022-12-31T08:00:09.326Z,20.40
2022-12-31T08:03:02.284Z,20.39
2022-12-31T08:05:35.222Z,20.38
2022-12-31T08:08:18.272Z,20.38
2022-12-31T08:10:54.647Z,20.39
2022-12-31T08:13:22.883Z,20.42
2022-12-31T08:15:53.183Z,20.41
2022-12-31T08:18:21.721Z,20.42
2022-12-31T08:21:00.932Z,20.44
2022-12-31T08:23:38.043Z,20.45
2022-12-31T08:26:20.245Z,20.47
2022-12-31T08:28:57.603Z,20.46
2022-12-31T08:31:35.100Z,20.19
2022-12-31T08:34:18.358Z,19.98
2022-12-31T08:36:56.064Z,19.98
2022-12-31T08:39:35.786Z,20.01
2022-12-31T08:42:10.537Z,20.06
2022-12-31T08:44:44.173Z,20.12
2022-12-31T08:47:22.913Z,20.15
2022-12-31T08:49:51.278Z,20.15
2022-12-31T08:52:24.662Z,20.16
2022-12-31T08:54:53.351Z,20.18
2022-12-31T08:57:30.521Z,20.20
2022-12-31T09:00:07.098Z,20.23
2022-12-31T09:03:08.229Z,20.25
2022-12-31T09:05:48.382Z,20.25
2022-12-31T09:08:27.234Z,20.25
2022-12-31T09:11:00.237Z,20.23
2022-12-31T09:13:39.071Z,20.23
2022-12-31T09:16:15.180Z,20.26
2022-12-31T09:18:44.782Z,20.28
2022-12-31T09:21:16.091Z,20.29
2022-12-31T09:23:45.012Z,20.30
2022-12-31T09:26:33.726Z,20.32
2022-12-31T09:29:09.727Z,20.33
2022-12-31T09:31:46.434Z,20.34
2022-12-31T09:34:23.732Z,20.35
2022-12-31T09:36:57.910Z,20.35
2022-12-31T09:39:34.609Z,20.36
2022-12-31T09:42:44.260Z,20.39
2022-12-31T09:45:44.961Z,20.40
2022-12-31T09:48:48.293Z,20.41
2022-12-31T09:51:28.956Z,20.43
2022-12-31T09:54:19.349Z,20.42
2022-12-31T09:56:58.758Z,20.43
2022-12-31T09:59:37.872Z,20.44
2022-12-31T10:02:23.380Z,20.43
2022-12-31T10:05:16.077Z,20.45
2022-12-31T10:07:53.629Z,20.45
2022-12-31T10:10:27.074Z,20.45
2022-12-31T10:13:09.526Z,20.44
2022-12-31T10:15:55.185Z,20.46
2022-12-31T10:18:45.370Z,20.47
2022-12-31T10:21:29.221Z,20.47
2022-12-31T10:24:18.440Z,20.46
2022-12-31T10:27:01.471Z,20.46
2022-12-31T10:29:42.164Z,20.47
2022-12-31T10:32:27.784Z,20.46
2022-12-31T10:35:13.080Z,20.46
2022-12-31T10:37:47.862Z,20.46
2022-12-31T10:40:30.115Z,20.47
2022-12-31T10:43:34.101Z,20.48
2022-12-31T10:46:39.259Z,20.48
2022-12-31T10:49:36.878Z,20.48
2022-12-31T10:52:43.420Z,20.48
2022-12-31T10:55:41.965Z,20.49
2022-12-31T10:58:42.467Z,20.49
2022-12-31T11:01:18.858Z,20.49
2022-12-31T11:04:16.746Z,20.50
2022-12-31T11:07:10.543Z,20.50
2022-12-31T11:10:10.948Z,20.51
2022-12-31T11:13:10.388Z,20.50
2022-12-31T11:16:02.155Z,20.50
2022-12-31T11:18:39.808Z,20.51
2022-12-31T11:21:30.532Z,20.50
2022-12-31T11:24:07.032Z,20.49
2022-12-31T11:26:50.120Z,20.48
2022-12-31T11:29:37.470Z,20.48
2022-12-31T11:32:15.343Z,20.48
2022-12-31T11:35:15.712Z,20.48
2022-12-31T11:37:48.573Z,20.48
2022-12-31T11:40:29.454Z,20.49
2022-12-31T11:43:01.623Z,20.47
2022-12-31T11:45:55.731Z,20.41
2022-12-31T11:48:31.336Z,20.37
2022-12-31T11:51:15.599Z,20.37
2022-12-31T11:54:05.012Z,20.38
2022-12-31T11:56:38.007Z,20.20
2022-12-31T11:59:18.698Z,20.05
2022-12-31T12:01:56.198Z,20.05
2022-12-31T12:04:24.563Z,20.08
2022-12-31T12:06:54.826Z,20.13
2022-12-31T12:09:28.905Z,20.18
2022-12-31T12:12:01.761Z,20.22
2022-12-31T12:14:33.505Z,20.26
2022-12-31T12:17:05.615Z,20.28
2022-12-31T12:19:36.424Z,20.31
2022-12-31T12:22:12.638Z,20.33
2022-12-31T12:24:41.220Z,20.35
2022-12-31T12:27:22.632Z,20.34
2022-12-31T12:29:50.748Z,20.31
2022-12-31T12:32:21.697Z,20.32
2022-12-31T12:34:50.400Z,20.30
2022-12-31T12:37:33.454Z,20.33
2022-12-31T12:40:03.379Z,20.35
2022-12-31T12:42:32.303Z,20.36
2022-12-31T12:45:06.343Z,20.35
2022-12-31T12:47:36.200Z,20.39
2022-12-31T12:50:04.953Z,20.38
2022-12-31T12:52:59.195Z,20.39
2022-12-31T12:55:37.107Z,20.40
2022-12-31T12:58:19.289Z,20.39
2022-12-31T13:00:55.101Z,20.41
2022-12-31T13:04:33.452Z,20.41
2022-12-31T13:07:17.014Z,20.41
2022-12-31T13:10:06.506Z,20.41
2022-12-31T13:13:22.004Z,20.42
2022-12-31T13:15:37.711Z,20.42
2022-12-31T13:18:15.381Z,20.41
2022-12-31T13:20:51.750Z,20.43
2022-12-31T13:23:27.787Z,20.40
2022-12-31T13:26:06.802Z,20.40
2022-12-31T13:28:37.323Z,20.41
2022-12-31T13:31:10.467Z,20.42
2022-12-31T13:33:43.598Z,20.44
2022-12-31T13:36:17.879Z,20.45
2022-12-31T13:38:48.194Z,20.45
2022-12-31T13:41:20.118Z,20.44
2022-12-31T13:43:51.406Z,20.46
2022-12-31T13:46:28.412Z,20.46
2022-12-31T13:49:01.426Z,20.46
2022-12-31T13:51:45.611Z,20.47
2022-12-31T13:54:24.371Z,20.48
2022-12-31T13:56:54.015Z,20.48
2022-12-31T13:59:27.565Z,20.50
2022-12-31T14:02:03.142Z,20.49
2022-12-31T14:04:35.618Z,20.49
2022-12-31T14:07:11.170Z,20.48
2022-12-31T14:09:39.482Z,20.49
2022-12-31T14:12:29.334Z,20.43
2022-12-31T14:15:07.523Z,20.42
2022-12-31T14:17:43.697Z,20.44
2022-12-31T14:20:22.792Z,20.43
2022-12-31T14:23:03.933Z,20.44
2022-12-31T14:25:39.185Z,20.45
2022-12-31T14:28:11.393Z,20.46
2022-12-31T14:30:42.807Z,20.47
2022-12-31T14:33:23.622Z,20.48
2022-12-31T14:36:11.149Z,20.49
2022-12-31T14:38:54.719Z,20.49
2022-12-31T14:41:46.064Z,20.50
2022-12-31T14:44:28.299Z,20.48
2022-12-31T14:47:13.135Z,20.46
2022-12-31T14:49:51.196Z,20.45
2022-12-31T14:52:25.181Z,20.44
2022-12-31T14:55:02.897Z,20.45
2022-12-31T14:58:01.744Z,20.46
2022-12-31T15:00:29.376Z,20.47
2022-12-31T15:02:59.836Z,20.46
2022-12-31T15:05:31.942Z,20.47
2022-12-31T15:08:24.931Z,20.48
2022-12-31T15:11:11.795Z,20.47
2022-12-31T15:14:01.212Z,20.46
2022-12-31T15:16:44.985Z,20.45
2022-12-31T15:19:46.876Z,20.48
2022-12-31T15:22:31.710Z,20.46
2022-12-31T15:25:01.011Z,20.46
2022-12-31T15:27:36.912Z,20.46
2022-12-31T15:30:07.429Z,20.46
2022-12-31T15:32:39.652Z,20.46
2022-12-31T15:35:26.000Z,20.47
2022-12-31T15:38:01.333Z,20.46
2022-12-31T15:40:29.996Z,20.47
2022-12-31T15:43:04.203Z,20.47
2022-12-31T15:45:35.201Z,20.46
2022-12-31T15:48:09.433Z,20.47
2022-12-31T15:50:40.194Z,20.48
2022-12-31T15:53:09.555Z,20.48
2022-12-31T15:55:42.615Z,20.46
2022-12-31T15:58:17.013Z,20.49
2022-12-31T16:01:12.979Z,20.45
2022-12-31T16:03:46.063Z,20.50
2022-12-31T16:06:17.055Z,20.50
2022-12-31T16:08:47.407Z,20.53
2022-12-31T16:11:18.894Z,20.53
2022-12-31T16:13:51.878Z,20.53
2022-12-31T16:16:23.048Z,20.54
2022-12-31T16:18:53.679Z,20.53
2022-12-31T16:21:32.705Z,20.54
2022-12-31T16:24:03.029Z,20.52
2022-12-31T16:26:35.805Z,20.55
2022-12-31T16:29:05.621Z,20.56
2022-12-31T16:31:33.967Z,20.57
2022-12-31T16:34:13.041Z,20.55
2022-12-31T16:36:41.184Z,20.59
2022-12-31T16:39:31.421Z,20.58
2022-12-31T16:42:17.666Z,20.55
2022-12-31T16:44:47.505Z,20.57
2022-12-31T16:47:21.490Z,20.57
2022-12-31T16:49:53.878Z,20.58
2022-12-31T16:52:28.819Z,20.58
2022-12-31T16:54:58.270Z,20.58
2022-12-31T16:57:32.379Z,20.59
2022-12-31T17:00:05.863Z,20.60
2022-12-31T17:02:39.171Z,20.58
2022-12-31T17:05:19.933Z,20.60
2022-12-31T17:08:00.211Z,20.63
2022-12-31T17:10:37.293Z,20.59
2022-12-31T17:13:27.692Z,20.58
2022-12-31T17:16:01.672Z,20.61
2022-12-31T17:18:35.964Z,20.64
2022-12-31T17:21:12.432Z,20.66
2022-12-31T17:23:42.615Z,20.71
2022-12-31T17:26:14.246Z,20.74
2022-12-31T17:28:45.864Z,20.75
2022-12-31T17:31:35.731Z,20.73
2022-12-31T17:34:33.812Z,20.78
2022-12-31T17:37:04.176Z,20.82
2022-12-31T17:39:47.382Z,20.84
2022-12-31T17:42:29.860Z,20.85
2022-12-31T17:45:01.411Z,20.85
2022-12-31T17:47:47.612Z,20.87
2022-12-31T17:50:21.660Z,20.89
2022-12-31T17:52:49.933Z,20.90
2022-12-31T17:55:18.170Z,20.85
2022-12-31T17:57:52.464Z,20.93
2022-12-31T18:00:26.038Z,20.93
2022-12-31T18:02:55.693Z,20.91
2022-12-31T18:05:27.609Z,20.94
2022-12-31T18:07:58.562Z,20.85
2022-12-31T18:10:30.279Z,20.95
2022-12-31T18:13:01.593Z,20.95
2022-12-31T18:15:34.047Z,20.93
2022-12-31T18:18:03.795Z,20.94
2022-12-31T18:20:31.808Z,20.93
2022-12-31T18:23:02.001Z,20.95
2022-12-31T18:25:30.153Z,20.94
2022-12-31T18:27:58.381Z,20.95
2022-12-31T18:30:29.071Z,20.88
2022-12-31T18:32:57.400Z,20.89
2022-12-31T18:35:58.112Z,20.88
2022-12-31T18:38:16.867Z,20.95
2022-12-31T18:40:50.452Z,20.87
2022-12-31T18:43:20.355Z,20.93
2022-12-31T18:45:49.716Z,20.91
2022-12-31T18:48:18.731Z,20.90
2022-12-31T18:50:49.693Z,20.95
2022-12-31T18:53:19.743Z,20.87
2022-12-31T18:55:50.467Z,20.92
2022-12-31T18:58:18.941Z,20.91
2022-12-31T19:00:48.851Z,20.90
2022-12-31T19:03:18.555Z,20.85
2022-12-31T19:05:51.108Z,20.91
2022-12-31T19:08:20.431Z,20.82
2022-12-31T19:10:50.444Z,20.87
2022-12-31T19:13:20.676Z,20.89
2022-12-31T19:15:50.533Z,20.79
2022-12-31T19:18:22.872Z,20.88
2022-12-31T19:20:53.893Z,20.85
2022-12-31T19:23:24.787Z,20.82
2022-12-31T19:26:03.143Z,20.85
2022-12-31T19:28:31.733Z,20.88
2022-12-31T19:30:59.912Z,20.89
2022-12-31T19:33:27.959Z,20.90
2022-12-31T19:35:57.524Z,20.88
2022-12-31T19:38:28.794Z,20.83
2022-12-31T19:40:57.134Z,20.84
2022-12-31T19:43:25.455Z,20.83
2022-12-31T19:45:53.931Z,20.83
2022-12-31T19:48:28.721Z,20.83
2022-12-31T19:51:01.775Z,20.82
2022-12-31T19:53:29.940Z,20.84
2022-12-31T19:55:58.052Z,20.82
2022-12-31T19:58:27.953Z,20.85
2022-12-31T20:01:02.471Z,20.85
2022-12-31T20:03:33.751Z,20.85
2022-12-31T20:06:06.196Z,20.84
2022-12-31T20:08:35.844Z,20.85
2022-12-31T20:11:09.374Z,20.83
2022-12-31T20:13:38.115Z,20.86
2022-12-31T20:16:08.856Z,20.86
2022-12-31T20:18:40.530Z,20.86
2022-12-31T20:21:12.460Z,20.87
2022-12-31T20:23:44.680Z,20.85
2022-12-31T20:26:17.745Z,20.85
2022-12-31T20:28:46.295Z,20.86
2022-12-31T20:31:22.010Z,20.83
2022-12-31T20:33:50.186Z,20.85
2022-12-31T20:36:19.840Z,20.85
2022-12-31T20:38:48.009Z,20.85
2022-12-31T20:41:17.896Z,20.84
2022-12-31T20:43:46.059Z,20.86
2022-12-31T20:46:18.976Z,20.87
2022-12-31T20:48:48.093Z,20.86
2022-12-31T20:51:17.902Z,20.85
2022-12-31T20:53:49.691Z,20.85
2022-12-31T20:56:18.086Z,20.84
2022-12-31T20:58:46.399Z,20.86
2022-12-31T21:01:15.491Z,20.87
2022-12-31T21:06:35.746Z,20.86
2022-12-31T21:09:07.385Z,20.87
2022-12-31T21:11:53.196Z,20.87
2022-12-31T21:14:21.327Z,20.86
2022-12-31T21:16:49.349Z,20.88
2022-12-31T21:19:17.404Z,20.89
2022-12-31T21:21:45.413Z,20.90
2022-12-31T21:24:20.211Z,20.91
2022-12-31T21:26:51.557Z,20.91
2022-12-31T21:29:19.559Z,20.91
2022-12-31T21:31:47.568Z,20.91
2022-12-31T21:34:15.517Z,20.91
2022-12-31T21:36:43.559Z,20.91
2022-12-31T21:39:11.590Z,20.91
2022-12-31T21:41:53.615Z,20.91
2022-12-31T21:44:23.536Z,20.91
2022-12-31T21:47:33.378Z,20.91
2022-12-31T21:49:43.819Z,20.91
2022-12-31T21:52:26.929Z,20.91
2022-12-31T21:55:12.970Z,20.90
2022-12-31T21:58:15.432Z,20.90
2022-12-31T22:00:58.224Z,20.90
2022-12-31T22:03:27.644Z,20.89
2022-12-31T22:05:58.951Z,20.88
2022-12-31T22:08:30.135Z,20.88
2022-12-31T22:10:58.662Z,20.88
2022-12-31T22:13:28.547Z,20.87
2022-12-31T22:16:04.333Z,20.87
2022-12-31T22:18:35.658Z,20.87
2022-12-31T22:21:05.944Z,20.87
2022-12-31T22:23:35.317Z,20.88
2022-12-31T22:26:04.355Z,20.87
2022-12-31T22:28:39.112Z,20.87
2022-12-31T22:31:07.982Z,20.88
2022-12-31T22:33:36.067Z,20.87
2022-12-31T22:36:06.935Z,20.87
2022-12-31T22:38:35.392Z,20.86
2022-12-31T22:41:05.448Z,20.86
2022-12-31T22:43:35.648Z,20.87
2022-12-31T22:46:10.709Z,20.87
2022-12-31T22:48:39.619Z,20.86
2022-12-31T22:51:08.839Z,20.87
2022-12-31T22:53:41.526Z,20.88
2022-12-31T22:56:12.824Z,20.88
2022-12-31T22:58:44.627Z,20.87
2022-12-31T23:01:19.377Z,20.87
2022-12-31T23:03:48.250Z,20.87
2022-12-31T23:06:16.699Z,20.86
2022-12-31T23:09:07.761Z,20.86
2022-12-31T23:11:37.041Z,20.84
2022-12-31T23:14:24.654Z,20.83
2022-12-31T23:17:30.834Z,20.81
2022-12-31T23:20:15.798Z,20.82
2022-12-31T23:23:04.923Z,20.81
2022-12-31T23:25:33.498Z,20.79
2022-12-31T23:28:01.712Z,20.81
2022-12-31T23:30:31.136Z,20.80
2022-12-31T23:32:59.114Z,20.81
2022-12-31T23:35:27.145Z,20.81
2022-12-31T23:37:55.754Z,20.73
2022-12-31T23:40:23.819Z,20.81
2022-12-31T23:42:51.829Z,20.81
2022-12-31T23:45:19.844Z,20.82
2022-12-31T23:47:49.317Z,20.81
2022-12-31T23:50:17.533Z,20.81
2022-12-31T23:52:45.569Z,20.82
2022-12-31T23:55:13.601Z,20.82
2022-12-31T23:57:44.698Z,20.81
